Time;durP1;ratioP1;P1;durP2;ratioP2;P2;SDS_P1;SDS_P2;PMS_P1;PMS_P2;Temp;Humidity;BMP_temperature;BMP_pressure;BME280_temperature;BME280_humidity;BME280_pressure;Samples;Min_cycle;Max_cycle;Signal;HPM_P1;HPM_P2
2023/09/26 00:01:48;;;;;;;3.80;2.28;;;11.60;99.90;;;;;;5072427;28;20370;-68
2023/09/26 00:04:14;;;;;;;7.68;2.30;;;11.50;99.90;;;;;;5068563;28;20040;-66
2023/09/26 00:06:40;;;;;;;3.40;2.30;;;11.40;99.90;;;;;;5061407;28;20078;-64
2023/09/26 00:09:05;;;;;;;5.65;2.70;;;11.40;99.90;;;;;;5073327;28;20032;-68
2023/09/26 00:11:33;;;;;;;7.95;2.60;;;11.30;99.90;;;;;;5073301;28;20037;-67
2023/09/26 00:13:59;;;;;;;6.13;2.88;;;11.30;99.90;;;;;;5069116;28;20032;-67
2023/09/26 00:16:24;;;;;;;2.92;2.25;;;11.30;99.90;;;;;;5072075;28;20035;-66
2023/09/26 00:18:50;;;;;;;3.65;2.20;;;11.20;99.90;;;;;;5044290;28;20107;-65
2023/09/26 00:21:15;;;;;;;9.77;2.63;;;11.20;99.90;;;;;;5059749;28;20037;-67
2023/09/26 00:23:41;;;;;;;4.32;2.58;;;11.10;99.90;;;;;;5074317;28;20032;-65
2023/09/26 00:26:07;;;;;;;4.05;2.70;;;11.10;99.90;;;;;;5080554;28;20435;-66
2023/09/26 00:28:33;;;;;;;4.35;2.72;;;11.00;99.90;;;;;;5080258;28;20055;-65
2023/09/26 00:31:04;;;;;;;5.95;3.08;;;11.00;99.90;;;;;;5079228;28;20541;-64
2023/09/26 00:33:30;;;;;;;5.88;2.53;;;11.00;99.90;;;;;;5064897;28;20028;-67
2023/09/26 00:35:58;;;;;;;3.78;2.33;;;10.90;99.90;;;;;;5063175;28;20024;-67
2023/09/26 00:38:24;;;;;;;4.63;2.40;;;10.90;99.90;;;;;;5054420;28;20401;-66
2023/09/26 00:40:49;;;;;;;3.97;2.17;;;10.90;99.90;;;;;;5086092;28;20032;-63
2023/09/26 00:43:24;;;;;;;4.07;2.53;;;10.90;99.90;;;;;;5074631;28;20023;-66
2023/09/26 00:45:54;;;;;;;3.80;2.90;;;10.90;99.90;;;;;;5077518;28;20047;-63
2023/09/26 00:48:21;;;;;;;10.00;2.50;;;10.80;99.90;;;;;;5078774;28;20471;-66
2023/09/26 00:50:47;;;;;;;3.15;2.10;;;10.90;99.90;;;;;;5052035;28;20029;-67
2023/09/26 00:53:13;;;;;;;3.60;2.45;;;10.90;99.90;;;;;;5075801;28;20034;-68
2023/09/26 00:55:39;;;;;;;4.15;2.55;;;10.90;99.90;;;;;;5078154;28;20057;-66
2023/09/26 00:58:04;;;;;;;5.30;2.50;;;10.90;99.90;;;;;;5079474;28;20056;-65
2023/09/26 01:00:31;;;;;;;4.50;2.15;;;10.90;99.90;;;;;;5077962;28;20024;-66
2023/09/26 01:02:57;;;;;;;4.18;2.22;;;10.90;99.90;;;;;;5075308;28;20440;-62
2023/09/26 01:05:23;;;;;;;6.85;2.60;;;10.80;99.90;;;;;;5078260;27;20068;-66
2023/09/26 01:07:49;;;;;;;4.50;2.80;;;10.80;99.90;;;;;;5074643;28;20121;-67
2023/09/26 01:10:15;;;;;;;7.18;2.83;;;10.80;99.90;;;;;;5070433;28;20484;-65
2023/09/26 01:12:41;;;;;;;6.65;2.72;;;10.70;99.90;;;;;;5070593;28;20043;-65
2023/09/26 01:15:08;;;;;;;6.63;2.65;;;10.70;99.90;;;;;;5075279;28;20157;-66
2023/09/26 01:17:34;;;;;;;3.33;2.17;;;10.70;99.90;;;;;;5079472;28;20520;-67
2023/09/26 01:19:59;;;;;;;6.38;3.28;;;10.70;99.90;;;;;;5076057;28;20045;-66
2023/09/26 01:22:27;;;;;;;4.80;2.90;;;10.70;99.90;;;;;;5078707;28;20032;-64
2023/09/26 01:24:53;;;;;;;6.05;2.55;;;10.70;99.90;;;;;;5077891;28;20036;-65
2023/09/26 01:27:19;;;;;;;4.70;2.70;;;10.80;99.90;;;;;;5079585;28;20077;-65
2023/09/26 01:29:47;;;;;;;4.68;2.78;;;10.80;99.90;;;;;;5061560;28;20032;-67
2023/09/26 01:32:13;;;;;;;4.72;2.78;;;10.80;99.90;;;;;;5067609;28;20111;-66
2023/09/26 01:34:39;;;;;;;4.70;2.58;;;10.70;99.90;;;;;;5078731;28;20131;-65
2023/09/26 01:37:05;;;;;;;7.10;3.08;;;10.60;99.90;;;;;;5078551;28;20099;-67
2023/09/26 01:39:31;;;;;;;4.55;2.78;;;10.60;99.90;;;;;;5059012;28;20082;-65
2023/09/26 01:41:56;;;;;;;5.93;2.45;;;10.60;99.90;;;;;;5048932;28;20021;-66
2023/09/26 01:44:22;;;;;;;3.90;2.90;;;10.60;99.90;;;;;;5076266;28;20032;-66
2023/09/26 01:46:48;;;;;;;4.70;2.60;;;10.50;99.90;;;;;;5046668;28;20027;-63
2023/09/26 01:49:13;;;;;;;4.07;2.45;;;10.40;99.90;;;;;;5059064;28;20397;-65
2023/09/26 01:51:39;;;;;;;8.70;3.35;;;10.40;99.90;;;;;;5078031;28;20020;-66
2023/09/26 01:54:05;;;;;;;4.68;2.72;;;10.40;99.90;;;;;;5079747;28;20029;-63
2023/09/26 01:56:33;;;;;;;5.38;3.20;;;10.50;99.90;;;;;;5079838;28;20028;-63
2023/09/26 01:59:00;;;;;;;4.68;2.88;;;10.50;99.90;;;;;;5075238;28;20056;-65
2023/09/26 02:01:25;;;;;;;5.53;3.22;;;10.40;99.90;;;;;;5051124;28;20016;-67
2023/09/26 02:03:51;;;;;;;8.98;3.22;;;10.40;99.90;;;;;;5080603;28;20086;-66
2023/09/26 02:06:16;;;;;;;6.45;3.25;;;10.30;99.90;;;;;;5077678;28;20032;-66
2023/09/26 02:08:42;;;;;;;4.45;3.00;;;10.30;99.90;;;;;;5073423;28;20036;-65
2023/09/26 02:11:08;;;;;;;4.72;2.95;;;10.40;99.90;;;;;;5076880;28;20040;-66
2023/09/26 02:13:33;;;;;;;5.78;3.92;;;10.40;99.90;;;;;;5077751;28;20056;-65
2023/09/26 02:15:59;;;;;;;8.48;3.00;;;10.30;99.90;;;;;;5051704;28;20036;-65
2023/09/26 02:18:27;;;;;;;6.22;3.10;;;10.30;99.90;;;;;;5079385;28;20032;-62
2023/09/26 02:20:53;;;;;;;8.00;3.42;;;10.20;99.90;;;;;;5075019;28;20024;-66
2023/09/26 02:23:19;;;;;;;11.63;3.50;;;10.30;99.90;;;;;;5074242;28;20043;-66
2023/09/26 02:25:51;;;;;;;7.57;3.10;;;10.30;99.90;;;;;;5078047;28;20049;-67
2023/09/26 02:28:17;;;;;;;7.28;3.60;;;10.30;99.90;;;;;;5061196;28;20567;-67
2023/09/26 02:30:43;;;;;;;9.38;3.25;;;10.30;99.90;;;;;;5079690;28;20028;-68
2023/09/26 02:33:08;;;;;;;5.28;2.92;;;10.30;99.90;;;;;;5076785;28;20024;-66
2023/09/26 02:35:34;;;;;;;5.10;3.13;;;10.20;99.90;;;;;;5077180;28;20540;-64
2023/09/26 02:37:59;;;;;;;5.40;3.28;;;10.20;99.90;;;;;;5051553;28;20438;-65
2023/09/26 02:40:25;;;;;;;8.18;3.20;;;10.20;99.90;;;;;;5062685;28;20033;-67
2023/09/26 02:42:50;;;;;;;4.38;3.10;;;10.10;99.90;;;;;;5071933;28;20033;-62
2023/09/26 02:45:16;;;;;;;7.57;3.63;;;10.20;99.90;;;;;;5065030;28;20108;-65
2023/09/26 02:47:42;;;;;;;4.45;2.60;;;10.10;99.90;;;;;;5078943;28;20016;-65
2023/09/26 02:50:09;;;;;;;5.43;3.20;;;10.10;99.90;;;;;;5051807;28;20136;-66
2023/09/26 02:52:36;;;;;;;5.53;3.22;;;10.10;99.90;;;;;;5074849;28;20039;-66
2023/09/26 02:55:02;;;;;;;4.93;3.03;;;10.10;99.90;;;;;;5073548;28;20028;-65
2023/09/26 02:57:28;;;;;;;18.17;4.75;;;10.10;99.90;;;;;;5068831;28;20504;-65
2023/09/26 02:59:53;;;;;;;10.73;3.88;;;10.00;99.90;;;;;;5052524;28;20030;-66
2023/09/26 03:02:19;;;;;;;5.65;3.10;;;10.00;99.90;;;;;;5070965;28;20020;-66
2023/09/26 03:04:48;;;;;;;6.68;2.90;;;10.00;99.90;;;;;;5067539;27;20085;-65
2023/09/26 03:07:14;;;;;;;9.60;3.58;;;10.00;99.90;;;;;;5075933;28;20040;-66
2023/09/26 03:09:40;;;;;;;8.65;3.05;;;10.00;99.90;;;;;;5054956;28;20052;-67
2023/09/26 03:12:06;;;;;;;4.50;3.15;;;10.00;99.90;;;;;;5072930;28;20123;-65
2023/09/26 03:14:32;;;;;;;8.23;3.35;;;9.90;99.90;;;;;;5077718;28;21077;-65
2023/09/26 03:16:57;;;;;;;6.30;3.20;;;9.90;99.90;;;;;;5077634;28;20036;-66
2023/09/26 03:19:23;;;;;;;6.43;3.55;;;9.80;99.90;;;;;;5074961;28;20512;-65
2023/09/26 03:21:50;;;;;;;7.55;3.47;;;9.80;99.90;;;;;;5070251;28;20028;-66
2023/09/26 03:24:16;;;;;;;6.78;2.95;;;9.80;99.90;;;;;;5076905;28;20069;-66
2023/09/26 03:26:42;;;;;;;6.57;3.40;;;9.70;99.90;;;;;;5078380;28;20276;-65
2023/09/26 03:29:08;;;;;;;5.45;3.13;;;9.60;99.90;;;;;;5066532;28;20493;-66
2023/09/26 03:31:34;;;;;;;6.20;4.32;;;9.60;99.90;;;;;;5075787;28;20028;-66
2023/09/26 03:34:00;;;;;;;5.35;3.22;;;9.60;99.90;;;;;;5075486;28;20582;-66
2023/09/26 03:36:25;;;;;;;5.78;3.20;;;9.60;99.90;;;;;;5074780;28;20043;-65
2023/09/26 03:38:51;;;;;;;5.65;3.03;;;9.60;99.90;;;;;;5074510;28;20028;-61
2023/09/26 03:41:16;;;;;;;4.97;3.45;;;9.60;99.90;;;;;;5076560;28;20040;-66
2023/09/26 03:43:42;;;;;;;5.50;3.00;;;9.50;99.90;;;;;;5069361;28;20028;-65
2023/09/26 03:46:08;;;;;;;5.63;3.30;;;9.40;99.90;;;;;;5054553;28;20420;-66
2023/09/26 03:48:34;;;;;;;6.55;3.45;;;9.40;99.90;;;;;;5066449;28;20055;-64
2023/09/26 03:51:11;;;;;;;10.45;3.83;;;9.40;99.90;;;;;;5056508;28;20033;-65
2023/09/26 03:53:37;;;;;;;5.78;3.75;;;9.40;99.90;;;;;;5066738;28;20071;-66
2023/09/26 03:56:03;;;;;;;6.90;3.22;;;9.40;99.90;;;;;;5059197;28;20097;-65
2023/09/26 03:58:30;;;;;;;6.45;3.53;;;9.40;99.90;;;;;;5078724;28;20020;-65
2023/09/26 04:00:55;;;;;;;5.35;3.50;;;9.40;99.90;;;;;;5074508;28;20016;-66
2023/09/26 04:03:21;;;;;;;5.00;2.90;;;9.40;99.90;;;;;;5076723;28;20020;-66
2023/09/26 04:05:55;;;;;;;5.43;3.63;;;9.40;99.90;;;;;;5080201;28;20044;-65
2023/09/26 04:08:20;;;;;;;10.25;3.88;;;9.40;99.90;;;;;;5076727;28;20020;-65
2023/09/26 04:10:46;;;;;;;11.95;4.13;;;9.30;99.90;;;;;;5078168;28;20027;-66
2023/09/26 04:13:11;;;;;;;5.00;3.53;;;9.30;99.90;;;;;;5079651;28;20504;-64
2023/09/26 04:15:38;;;;;;;6.35;3.28;;;9.30;99.90;;;;;;5081788;28;20498;-65
2023/09/26 04:18:05;;;;;;;10.23;4.05;;;9.30;99.90;;;;;;5079041;28;20021;-65
2023/09/26 04:20:30;;;;;;;5.25;3.55;;;9.30;99.90;;;;;;5080386;28;20493;-65
2023/09/26 04:22:56;;;;;;;4.82;3.15;;;9.30;99.90;;;;;;5077102;28;20020;-65
2023/09/26 04:25:22;;;;;;;9.65;3.45;;;9.20;99.90;;;;;;5079588;28;20024;-67
2023/09/26 04:27:47;;;;;;;8.40;3.45;;;9.20;99.90;;;;;;5080521;28;20028;-68
2023/09/26 04:30:13;;;;;;;6.38;4.43;;;9.20;99.90;;;;;;5058493;28;20087;-65
2023/09/26 04:32:38;;;;;;;6.53;3.40;;;9.20;99.90;;;;;;5055775;28;20119;-65
2023/09/26 04:35:05;;;;;;;6.25;4.07;;;9.20;99.90;;;;;;5076319;28;20031;-66
2023/09/26 04:37:30;;;;;;;6.18;3.60;;;9.20;99.90;;;;;;5047247;28;20025;-64
2023/09/26 04:39:56;;;;;;;5.43;3.45;;;9.10;99.90;;;;;;5047634;28;20035;-66
2023/09/26 04:42:21;;;;;;;4.30;3.10;;;9.10;99.90;;;;;;5076976;28;20038;-66
2023/09/26 04:44:47;;;;;;;9.77;3.80;;;9.10;99.90;;;;;;5058501;28;21686;-65
2023/09/26 04:47:12;;;;;;;7.43;3.28;;;9.00;99.90;;;;;;5077207;28;20393;-66
2023/09/26 04:49:39;;;;;;;5.63;4.00;;;9.00;99.90;;;;;;5057898;28;20035;-66
2023/09/26 04:52:05;;;;;;;7.93;3.85;;;9.00;99.90;;;;;;5077832;28;20051;-65
2023/09/26 04:54:30;;;;;;;6.05;3.60;;;8.90;99.90;;;;;;5071535;28;20092;-67
2023/09/26 04:56:56;;;;;;;6.53;4.18;;;8.90;99.90;;;;;;5072953;28;20119;-66
2023/09/26 04:59:21;;;;;;;8.27;4.50;;;8.90;99.90;;;;;;5059520;28;20489;-65
2023/09/26 05:01:48;;;;;;;10.30;4.78;;;8.90;99.90;;;;;;5080451;28;20051;-64
2023/09/26 05:04:14;;;;;;;11.35;3.97;;;9.00;99.90;;;;;;5083814;28;20032;-66
2023/09/26 05:06:40;;;;;;;6.72;4.30;;;9.00;99.90;;;;;;5079762;28;20012;-66
2023/09/26 05:09:08;;;;;;;9.38;4.55;;;9.10;99.90;;;;;;5078970;28;20409;-66
2023/09/26 05:11:34;;;;;;;9.15;4.50;;;9.10;99.90;;;;;;5069539;28;20028;-65
2023/09/26 05:14:00;;;;;;;8.55;3.92;;;9.10;99.90;;;;;;5079098;28;20035;-65
2023/09/26 05:16:26;;;;;;;4.90;3.58;;;9.10;99.90;;;;;;5076061;28;20494;-65
2023/09/26 05:18:51;;;;;;;8.77;4.28;;;9.10;99.90;;;;;;5070745;28;20620;-64
2023/09/26 05:21:17;;;;;;;7.60;4.72;;;9.10;99.90;;;;;;5066424;28;20028;-65
2023/09/26 05:23:43;;;;;;;6.25;3.65;;;9.10;99.90;;;;;;5080375;28;20032;-65
2023/09/26 05:26:12;;;;;;;8.77;3.88;;;9.10;99.90;;;;;;5072611;28;21306;-66
2023/09/26 05:28:38;;;;;;;5.82;3.63;;;9.10;99.90;;;;;;5076076;28;20028;-65
2023/09/26 05:31:05;;;;;;;8.18;4.60;;;9.10;99.90;;;;;;5070371;28;20035;-65
2023/09/26 05:33:31;;;;;;;6.03;3.63;;;9.10;99.90;;;;;;5075436;28;20392;-66
2023/09/26 05:35:56;;;;;;;5.43;4.28;;;9.10;99.90;;;;;;5069599;28;20028;-66
2023/09/26 05:38:25;;;;;;;7.05;4.32;;;9.10;99.90;;;;;;5075422;28;20519;-66
2023/09/26 05:40:51;;;;;;;6.07;3.95;;;9.10;99.90;;;;;;5075519;28;20645;-62
2023/09/26 05:43:17;;;;;;;6.63;4.57;;;9.20;99.90;;;;;;5071390;28;20573;-68
2023/09/26 05:45:42;;;;;;;6.72;4.53;;;9.30;99.90;;;;;;5063566;28;20059;-64
2023/09/26 05:48:08;;;;;;;5.78;3.95;;;9.40;99.90;;;;;;5066332;28;20028;-66
2023/09/26 05:50:34;;;;;;;6.72;4.55;;;9.60;99.90;;;;;;5076100;28;20086;-66
2023/09/26 05:53:03;;;;;;;11.50;4.93;;;9.70;99.90;;;;;;5075891;28;20412;-66
2023/09/26 05:55:28;;;;;;;6.35;4.20;;;9.70;99.90;;;;;;5077614;28;20032;-65
2023/09/26 05:57:54;;;;;;;10.35;4.63;;;9.80;99.90;;;;;;5076404;28;20404;-63
2023/09/26 06:00:20;;;;;;;6.97;4.03;;;9.90;99.90;;;;;;5058906;28;20393;-63
2023/09/26 06:02:45;;;;;;;5.07;3.55;;;9.90;99.90;;;;;;5076855;28;20028;-66
2023/09/26 06:05:11;;;;;;;6.35;4.20;;;10.00;99.90;;;;;;5071808;28;20045;-65
2023/09/26 06:07:37;;;;;;;4.82;3.65;;;10.00;99.90;;;;;;5065976;28;20559;-66
2023/09/26 06:10:03;;;;;;;7.22;4.22;;;10.10;99.90;;;;;;5061444;28;20141;-65
2023/09/26 06:12:30;;;;;;;6.82;3.58;;;10.20;99.90;;;;;;5072401;28;20027;-65
2023/09/26 06:14:56;;;;;;;6.57;3.60;;;10.30;99.90;;;;;;5072213;28;20055;-66
2023/09/26 06:17:22;;;;;;;6.40;3.17;;;10.30;99.90;;;;;;5057899;28;21183;-65
2023/09/26 06:19:48;;;;;;;4.43;2.78;;;10.40;99.90;;;;;;5072640;28;20028;-67
2023/09/26 06:22:14;;;;;;;5.68;3.08;;;10.50;99.90;;;;;;5076591;28;20039;-65
2023/09/26 06:24:39;;;;;;;6.95;3.35;;;10.60;99.90;;;;;;5078788;28;20053;-66
2023/09/26 06:27:05;;;;;;;4.30;3.30;;;10.70;99.90;;;;;;5077633;28;20563;-65
2023/09/26 06:29:31;;;;;;;6.25;2.65;;;10.90;99.90;;;;;;5077446;28;20760;-68
2023/09/26 06:31:56;;;;;;;5.40;3.00;;;10.90;99.90;;;;;;5071922;28;20409;-66
2023/09/26 06:34:22;;;;;;;5.13;2.70;;;11.00;99.90;;;;;;5074277;28;20044;-67
2023/09/26 06:36:51;;;;;;;5.35;3.30;;;11.10;99.90;;;;;;5072234;28;20063;-66
2023/09/26 06:39:17;;;;;;;8.40;2.80;;;11.30;99.90;;;;;;5069555;28;20454;-67
2023/09/26 06:41:42;;;;;;;5.57;2.97;;;11.50;99.90;;;;;;5069012;28;20127;-65
2023/09/26 06:44:09;;;;;;;4.18;2.60;;;11.90;99.90;;;;;;5075843;28;20032;-63
2023/09/26 06:46:35;;;;;;;7.20;2.45;;;12.40;99.90;;;;;;5082123;28;20032;-65
2023/09/26 06:49:01;;;;;;;4.50;2.33;;;13.20;99.90;;;;;;5075164;28;20025;-67
2023/09/26 06:51:26;;;;;;;4.53;1.80;;;14.30;99.90;;;;;;5062169;28;20034;-66
2023/09/26 06:53:52;;;;;;;3.90;1.77;;;15.50;99.90;;;;;;5076989;28;20134;-66
2023/09/26 06:56:18;;;;;;;4.97;1.75;;;16.50;99.90;;;;;;5077484;28;20571;-67
2023/09/26 06:58:43;;;;;;;3.65;1.35;;;17.40;99.90;;;;;;5076066;28;20028;-67
2023/09/26 07:01:17;;;;;;;5.07;1.90;;;18.80;99.90;;;;;;5074439;28;20060;-66
2023/09/26 07:03:43;;;;;;;8.40;1.98;;;19.60;99.90;;;;;;5077034;28;20031;-66
2023/09/26 07:06:13;;;;;;;3.08;1.80;;;19.80;98.50;;;;;;5032376;28;20040;-64
2023/09/26 07:08:40;;;;;;;3.45;1.60;;;19.10;99.00;;;;;;5074737;28;20036;-66
2023/09/26 07:11:06;;;;;;;4.15;1.70;;;18.30;99.90;;;;;;5075667;28;20046;-68
2023/09/26 07:13:35;;;;;;;3.00;1.63;;;17.50;99.90;;;;;;5078444;28;20027;-66
2023/09/26 07:16:05;;;;;;;5.72;1.73;;;17.00;99.90;;;;;;5072769;28;20016;-66
2023/09/26 07:18:32;;;;;;;4.82;2.20;;;16.30;99.90;;;;;;5076787;28;20036;-66
2023/09/26 07:21:04;;;;;;;4.53;2.10;;;16.00;99.90;;;;;;5069985;28;20035;-66
2023/09/26 07:23:32;;;;;;;3.20;2.08;;;15.60;99.90;;;;;;5075196;28;20017;-65
2023/09/26 07:26:12;;;;;;;2.92;2.00;;;15.20;99.90;;;;;;5075363;28;20545;-66
2023/09/26 07:28:41;;;;;;;3.05;2.20;;;15.00;99.90;;;;;;5073827;28;20020;-68
2023/09/26 07:31:08;;;;;;;4.32;1.98;;;15.10;99.90;;;;;;5068995;28;20024;-66
2023/09/26 07:33:34;;;;;;;3.65;2.08;;;14.90;99.90;;;;;;5066750;28;20020;-66
2023/09/26 07:36:00;;;;;;;5.10;2.15;;;14.80;99.90;;;;;;5076856;28;20028;-65
2023/09/26 07:38:26;;;;;;;5.28;2.05;;;14.80;99.90;;;;;;5077342;28;20028;-67
2023/09/26 07:40:51;;;;;;;2.97;2.13;;;14.80;99.90;;;;;;5068317;28;20107;-64
2023/09/26 07:43:17;;;;;;;4.15;2.67;;;14.80;99.90;;;;;;5074028;28;20038;-68
2023/09/26 07:45:43;;;;;;;2.42;2.03;;;14.70;99.90;;;;;;5069664;28;20482;-67
2023/09/26 07:48:09;;;;;;;3.30;2.35;;;14.60;99.90;;;;;;5076735;28;20028;-67
2023/09/26 07:50:34;;;;;;;5.47;2.10;;;14.70;99.90;;;;;;5077708;28;20028;-67
2023/09/26 07:53:02;;;;;;;5.47;1.95;;;14.80;99.90;;;;;;5072808;28;20028;-67
2023/09/26 07:55:28;;;;;;;6.60;2.30;;;14.80;99.90;;;;;;5066760;28;20016;-68
2023/09/26 07:57:54;;;;;;;3.97;2.55;;;14.80;99.90;;;;;;5074196;28;20032;-67
2023/09/26 08:00:20;;;;;;;4.43;1.90;;;14.90;99.90;;;;;;5073968;28;20037;-64
2023/09/26 08:02:45;;;;;;;5.53;2.50;;;15.00;99.90;;;;;;5075070;28;21263;-66
2023/09/26 08:05:11;;;;;;;4.07;2.53;;;15.10;99.90;;;;;;5066539;27;20048;-66
2023/09/26 08:07:38;;;;;;;4.20;2.45;;;15.20;99.90;;;;;;5077614;28;20397;-67
2023/09/26 08:10:04;;;;;;;6.55;3.13;;;15.20;99.90;;;;;;5074611;28;20027;-65
2023/09/26 08:12:30;;;;;;;4.18;2.25;;;15.30;99.90;;;;;;5075552;28;20049;-66
2023/09/26 08:14:57;;;;;;;3.35;2.08;;;15.30;99.90;;;;;;5076235;28;20618;-65
2023/09/26 08:17:23;;;;;;;3.53;2.20;;;15.40;99.90;;;;;;5077249;28;20551;-67
2023/09/26 08:19:48;;;;;;;6.28;2.72;;;15.50;99.90;;;;;;5074172;28;20032;-66
2023/09/26 08:22:14;;;;;;;6.20;2.08;;;15.50;99.90;;;;;;5075603;28;20036;-64
2023/09/26 08:24:40;;;;;;;5.53;2.35;;;15.70;99.90;;;;;;5060186;28;20043;-66
2023/09/26 08:27:05;;;;;;;4.82;1.90;;;15.80;99.90;;;;;;5077326;28;20107;-63
2023/09/26 08:29:31;;;;;;;7.93;2.42;;;16.00;99.90;;;;;;5069816;28;20508;-66
2023/09/26 08:31:57;;;;;;;8.65;2.33;;;16.20;99.90;;;;;;5055881;28;20447;-66
2023/09/26 08:34:23;;;;;;;2.92;1.77;;;16.30;99.90;;;;;;5053531;28;20040;-67
2023/09/26 08:36:49;;;;;;;4.13;2.03;;;16.50;99.90;;;;;;5053319;28;20029;-68
2023/09/26 08:39:15;;;;;;;3.53;2.42;;;16.60;99.90;;;;;;5064938;28;20512;-66
2023/09/26 08:41:45;;;;;;;3.22;2.15;;;16.70;99.90;;;;;;5069170;28;20024;-66
2023/09/26 08:44:11;;;;;;;2.38;1.60;;;16.90;99.90;;;;;;5055264;28;20035;-66
2023/09/26 08:46:39;;;;;;;4.22;1.85;;;17.20;99.90;;;;;;5065857;28;20386;-66
2023/09/26 08:49:05;;;;;;;3.38;1.70;;;17.50;99.90;;;;;;5071866;28;20043;-67
2023/09/26 08:51:35;;;;;;;6.82;1.90;;;17.80;99.90;;;;;;5074715;28;20490;-65
2023/09/26 08:54:00;;;;;;;2.85;1.50;;;18.30;99.90;;;;;;5073225;28;20020;-67
2023/09/26 08:56:26;;;;;;;4.60;1.58;;;18.70;99.90;;;;;;5063790;28;20095;-65
2023/09/26 08:58:55;;;;;;;1.98;1.27;;;19.70;99.90;;;;;;5073964;28;20031;-63
2023/09/26 09:01:21;;;;;;;3.08;1.90;;;20.80;99.90;;;;;;5076600;28;20101;-66
2023/09/26 09:03:47;;;;;;;3.63;1.60;;;21.60;99.90;;;;;;5075600;28;20024;-64
2023/09/26 09:06:13;;;;;;;3.50;1.40;;;22.40;98.90;;;;;;5064500;28;20051;-65
2023/09/26 09:08:39;;;;;;;2.25;1.20;;;22.90;98.30;;;;;;5056294;28;20028;-64
2023/09/26 09:11:05;;;;;;;3.53;1.52;;;22.80;97.40;;;;;;5067345;28;20037;-64
2023/09/26 09:13:35;;;;;;;5.93;2.53;;;23.00;97.20;;;;;;5075762;28;20021;-66
2023/09/26 09:16:09;;;;;;;2.60;1.30;;;23.00;97.10;;;;;;5072413;28;20063;-65
2023/09/26 09:18:36;;;;;;;1.85;1.33;;;23.40;95.70;;;;;;5077791;28;20031;-66
2023/09/26 09:21:19;;;;;;;3.95;1.27;;;23.40;95.80;;;;;;5080325;28;20043;-65
2023/09/26 09:23:50;;;;;;;4.53;1.60;;;23.60;95.70;;;;;;5063291;28;20025;-64
2023/09/26 09:26:17;;;;;;;3.22;1.20;;;24.00;94.80;;;;;;5056718;28;20033;-66
2023/09/26 09:28:42;;;;;;;8.45;1.60;;;24.20;94.60;;;;;;5067939;28;20021;-67
2023/09/26 09:31:08;;;;;;;2.00;1.33;;;24.50;95.30;;;;;;5073062;28;20182;-64
2023/09/26 09:33:35;;;;;;;2.17;1.30;;;24.70;94.70;;;;;;5077330;28;20036;-67
2023/09/26 09:36:01;;;;;;;8.23;1.63;;;24.50;94.40;;;;;;5077081;28;20054;-65
2023/09/26 09:38:32;;;;;;;5.15;2.30;;;24.50;94.60;;;;;;5076868;28;20025;-65
2023/09/26 09:40:57;;;;;;;3.60;1.48;;;25.00;92.20;;;;;;5072833;28;20028;-64
2023/09/26 09:43:25;;;;;;;4.40;1.50;;;25.20;91.60;;;;;;5073309;28;20042;-65
2023/09/26 09:45:53;;;;;;;2.92;1.70;;;25.00;92.00;;;;;;5078210;28;20028;-65
2023/09/26 09:48:25;;;;;;;4.18;1.85;;;24.80;93.90;;;;;;5073395;28;21625;-65
2023/09/26 09:50:54;;;;;;;2.20;1.50;;;25.00;92.80;;;;;;5075787;28;20020;-67
2023/09/26 09:53:21;;;;;;;2.92;1.38;;;24.60;92.10;;;;;;5072518;28;20031;-64
2023/09/26 09:55:51;;;;;;;1.50;0.98;;;24.70;93.10;;;;;;5078001;28;20529;-66
2023/09/26 09:58:23;;;;;;;1.65;1.20;;;24.90;93.50;;;;;;5068222;28;21941;-65
2023/09/26 10:00:51;;;;;;;1.73;1.20;;;24.80;93.00;;;;;;5074818;28;20040;-65
2023/09/26 10:03:17;;;;;;;2.28;1.20;;;24.70;92.50;;;;;;5074130;28;20028;-65
2023/09/26 10:05:45;;;;;;;1.38;1.17;;;24.80;93.10;;;;;;5076413;28;20032;-64
2023/09/26 10:08:13;;;;;;;2.67;1.10;;;24.40;93.00;;;;;;5069133;28;20035;-66
2023/09/26 10:10:40;;;;;;;8.45;1.58;;;24.20;93.50;;;;;;5061609;28;20032;-65
2023/09/26 10:13:08;;;;;;;4.30;1.65;;;24.10;94.00;;;;;;5077788;28;20027;-65
2023/09/26 10:16:02;;;;;;;2.95;1.40;;;23.70;94.60;;;;;;5075601;28;20036;-65
2023/09/26 10:18:28;;;;;;;3.65;1.50;;;23.60;94.60;;;;;;5070257;28;20033;-65
2023/09/26 10:20:54;;;;;;;3.67;1.67;;;23.40;96.00;;;;;;5070078;28;20032;-62
2023/09/26 10:23:21;;;;;;;3.08;1.58;;;23.30;95.20;;;;;;5072750;28;20071;-64
2023/09/26 10:25:47;;;;;;;6.03;1.48;;;23.00;95.30;;;;;;5069168;28;20020;-64
2023/09/26 10:28:16;;;;;;;1.60;1.20;;;22.80;95.60;;;;;;5074137;28;20047;-64
2023/09/26 10:30:46;;;;;;;2.33;1.30;;;22.90;96.40;;;;;;5072758;28;20042;-66
2023/09/26 10:33:13;;;;;;;3.25;1.55;;;22.90;97.30;;;;;;5059650;28;20563;-66
2023/09/26 10:35:43;;;;;;;1.80;1.40;;;22.90;97.20;;;;;;5077528;28;20065;-67
2023/09/26 10:38:18;;;;;;;3.33;1.58;;;22.90;96.80;;;;;;5055005;28;20029;-63
2023/09/26 10:40:45;;;;;;;1.48;1.10;;;22.90;97.20;;;;;;5074832;28;20113;-67
2023/09/26 10:43:11;;;;;;;2.60;1.45;;;22.90;97.10;;;;;;5073514;28;20112;-66
2023/09/26 10:45:41;;;;;;;2.80;1.52;;;23.00;97.50;;;;;;5076476;28;20020;-64
2023/09/26 10:48:07;;;;;;;2.85;1.20;;;23.00;96.90;;;;;;5077787;28;20026;-66
2023/09/26 10:50:33;;;;;;;2.53;1.40;;;23.00;96.10;;;;;;5065843;28;20040;-65
2023/09/26 10:52:59;;;;;;;1.23;1.10;;;22.90;96.20;;;;;;5071638;28;20082;-64
2023/09/26 10:55:24;;;;;;;4.78;1.27;;;22.80;97.00;;;;;;5053566;28;20919;-65
2023/09/26 10:57:51;;;;;;;2.88;1.38;;;22.80;96.80;;;;;;5073614;28;20114;-63
2023/09/26 11:00:17;;;;;;;3.10;1.55;;;22.80;96.30;;;;;;5078760;28;20036;-64
2023/09/26 11:02:43;;;;;;;4.13;1.42;;;22.70;97.00;;;;;;5076843;28;20031;-66
2023/09/26 11:05:11;;;;;;;2.95;1.40;;;22.80;97.30;;;;;;5077617;28;20047;-64
2023/09/26 11:07:38;;;;;;;2.63;1.48;;;22.70;97.40;;;;;;5071644;28;20379;-66
2023/09/26 11:10:05;;;;;;;2.58;1.52;;;22.60;97.00;;;;;;5075864;28;20048;-66
2023/09/26 11:12:31;;;;;;;4.18;1.50;;;22.60;97.30;;;;;;5072046;28;20032;-63
2023/09/26 11:14:59;;;;;;;3.25;1.80;;;22.60;97.30;;;;;;5072558;28;21235;-65
2023/09/26 11:17:27;;;;;;;2.55;1.55;;;22.40;96.90;;;;;;5078342;28;20031;-67
2023/09/26 11:19:57;;;;;;;3.22;1.58;;;22.40;97.70;;;;;;5069275;28;20119;-61
2023/09/26 11:22:23;;;;;;;4.40;1.50;;;22.50;98.10;;;;;;5075310;28;20547;-65
2023/09/26 11:24:49;;;;;;;4.20;1.80;;;22.30;97.40;;;;;;5076583;28;20029;-66
2023/09/26 11:27:14;;;;;;;15.13;1.65;;;22.40;98.80;;;;;;5063260;28;20033;-65
2023/09/26 11:29:40;;;;;;;3.65;1.58;;;22.40;97.60;;;;;;5072850;28;20562;-65
2023/09/26 11:32:06;;;;;;;2.83;1.63;;;22.40;98.50;;;;;;5075263;28;20028;-68
2023/09/26 11:34:35;;;;;;;3.78;1.77;;;22.20;97.70;;;;;;5070884;28;20081;-65
2023/09/26 11:37:00;;;;;;;2.72;1.45;;;22.20;97.90;;;;;;5066247;28;20493;-65
2023/09/26 11:39:26;;;;;;;3.28;1.60;;;22.10;97.60;;;;;;5076729;28;20040;-65
2023/09/26 11:42:05;;;;;;;4.45;1.40;;;22.10;98.70;;;;;;5074562;28;20036;-65
2023/09/26 11:44:31;;;;;;;3.33;1.70;;;22.10;98.10;;;;;;5068030;28;21239;-65
2023/09/26 11:46:58;;;;;;;3.17;2.10;;;22.20;98.50;;;;;;5072145;28;20058;-65
2023/09/26 11:49:24;;;;;;;3.10;1.70;;;22.10;98.70;;;;;;5074150;28;20140;-65
2023/09/26 11:51:52;;;;;;;2.35;1.70;;;22.10;99.10;;;;;;5067013;28;20027;-65
2023/09/26 11:54:17;;;;;;;1.35;1.00;;;22.10;99.30;;;;;;5069996;28;20025;-67
2023/09/26 11:56:44;;;;;;;2.78;1.40;;;22.20;99.10;;;;;;5064652;28;20044;-65
2023/09/26 11:59:11;;;;;;;3.38;1.65;;;22.20;98.70;;;;;;5070426;28;20058;-64
2023/09/26 12:01:36;;;;;;;2.00;1.40;;;22.30;97.80;;;;;;5052502;28;20036;-65
2023/09/26 12:04:05;;;;;;;4.65;1.42;;;22.30;97.80;;;;;;5064277;28;20111;-66
2023/09/26 12:06:32;;;;;;;2.53;1.40;;;22.40;97.90;;;;;;5066968;28;20051;-65
2023/09/26 12:08:58;;;;;;;1.77;1.30;;;22.40;97.30;;;;;;5076574;28;20502;-64
2023/09/26 12:11:24;;;;;;;4.13;1.52;;;22.40;98.20;;;;;;5074012;28;20055;-66
2023/09/26 12:13:50;;;;;;;2.25;1.35;;;22.50;98.30;;;;;;5057955;28;20085;-64
2023/09/26 12:16:15;;;;;;;3.58;1.50;;;22.40;98.20;;;;;;5065890;28;20036;-64
2023/09/26 12:18:41;;;;;;;3.00;1.45;;;22.40;98.90;;;;;;5061615;28;20119;-66
2023/09/26 12:21:07;;;;;;;8.30;1.38;;;22.40;98.80;;;;;;5063208;28;20106;-67
2023/09/26 12:23:33;;;;;;;2.42;1.55;;;22.40;98.30;;;;;;5056054;28;20486;-66
2023/09/26 12:25:59;;;;;;;4.40;2.13;;;22.40;98.90;;;;;;5053641;28;20074;-67
2023/09/26 12:28:25;;;;;;;2.92;1.58;;;22.40;98.60;;;;;;5068445;28;20559;-67
2023/09/26 12:30:51;;;;;;;1.48;1.23;;;22.40;98.60;;;;;;5066463;28;20111;-66
2023/09/26 12:33:17;;;;;;;5.53;2.08;;;22.40;99.50;;;;;;5076141;28;20040;-66
2023/09/26 12:35:43;;;;;;;3.30;1.33;;;22.30;99.50;;;;;;5067558;28;20033;-67
2023/09/26 12:38:09;;;;;;;2.20;1.35;;;22.30;98.30;;;;;;5074119;28;20025;-63
2023/09/26 12:40:34;;;;;;;2.95;1.35;;;22.20;98.40;;;;;;5077831;28;20021;-65
2023/09/26 12:43:00;;;;;;;4.10;1.30;;;22.20;99.00;;;;;;5082165;28;20383;-66
2023/09/26 12:45:26;;;;;;;2.65;1.45;;;22.20;99.60;;;;;;5082337;28;20033;-68